Time;durP1;ratioP1;P1;durP2;ratioP2;P2;SDS_P1;SDS_P2;PMS_P1;PMS_P2;Temp;Humidity;BMP_temperature;BMP_pressure;BME280_temperature;BME280_humidity;BME280_pressure;Samples;Min_cycle;Max_cycle;Signal;HPM_P1;HPM_P2
2023/05/22 00:01:36;;;;;;;12.77;10.20;;;;;;;;;;5085051;28;20422;-71
2023/05/22 00:04:04;;;;;;;11.18;9.85;;;;;;;;;;5085182;28;20197;-71
2023/05/22 00:06:32;;;;;;;10.80;9.80;;;;;;;;;;5085432;28;20242;-71
2023/05/22 00:08:59;;;;;;;11.25;10.27;;;;;;;;;;5085516;28;20224;-70
2023/05/22 00:11:25;;;;;;;13.35;11.00;;;;;;;;;;5085255;28;20196;-70
2023/05/22 00:13:52;;;;;;;12.15;10.10;;;;;;;;;;5084839;28;20211;-70
2023/05/22 00:16:18;;;;;;;11.50;10.38;;;;;;;;;;5085187;28;20202;-70
2023/05/22 00:18:44;;;;;;;12.73;10.15;;;;;;;;;;5085121;28;20245;-70
2023/05/22 00:21:12;;;;;;;11.55;10.52;;;;;;;;;;5084888;28;20196;-70
2023/05/22 00:23:38;;;;;;;12.55;11.25;;;;;;;;;;5084753;28;20552;-70
2023/05/22 00:26:04;;;;;;;12.05;10.93;;;;;;;;;;5084795;28;20504;-70
2023/05/22 00:28:30;;;;;;;12.95;11.27;;;;;;;;;;5084655;28;20282;-70
2023/05/22 00:30:57;;;;;;;13.32;11.13;;;;;;;;;;5084468;28;20196;-70
2023/05/22 00:33:23;;;;;;;11.68;10.52;;;;;;;;;;5084646;28;20263;-70
2023/05/22 00:35:50;;;;;;;11.32;10.32;;;;;;;;;;5084835;28;20504;-70
2023/05/22 00:38:29;;;;;;;12.80;10.55;;;;;;;;;;5084450;28;20236;-70
2023/05/22 00:40:55;;;;;;;14.48;10.63;;;;;;;;;;5084942;28;20234;-71
2023/05/22 00:43:21;;;;;;;12.27;10.95;;;;;;;;;;5084357;28;20440;-70
2023/05/22 00:45:48;;;;;;;12.07;10.30;;;;;;;;;;5084846;28;20203;-70
2023/05/22 00:48:14;;;;;;;11.98;10.88;;;;;;;;;;5084101;28;20254;-70
2023/05/22 00:50:40;;;;;;;11.60;10.55;;;;;;;;;;5084354;28;20196;-70
2023/05/22 00:53:07;;;;;;;11.93;10.73;;;;;;;;;;5084124;28;20474;-70
2023/05/22 00:55:34;;;;;;;10.68;9.63;;;;;;;;;;5084453;28;20204;-70
2023/05/22 00:58:06;;;;;;;11.20;10.18;;;;;;;;;;5084125;28;20274;-70
2023/05/22 01:00:33;;;;;;;11.57;10.45;;;;;;;;;;5084530;28;20203;-70
2023/05/22 01:02:59;;;;;;;11.30;10.30;;;;;;;;;;5083973;28;20268;-70
2023/05/22 01:05:26;;;;;;;13.25;11.10;;;;;;;;;;5084241;28;20196;-70
2023/05/22 01:07:53;;;;;;;11.95;10.75;;;;;;;;;;5083992;28;20184;-71
2023/05/22 01:10:19;;;;;;;12.80;11.63;;;;;;;;;;5083909;28;20200;-71
2023/05/22 01:12:52;;;;;;;12.00;10.70;;;;;;;;;;5083790;28;20204;-71
2023/05/22 01:15:21;;;;;;;11.50;10.43;;;;;;;;;;5083929;28;20402;-71
2023/05/22 01:17:52;;;;;;;12.02;10.82;;;;;;;;;;5083835;28;20266;-71
2023/05/22 01:20:21;;;;;;;12.73;10.50;;;;;;;;;;5083775;28;20196;-71
2023/05/22 01:22:57;;;;;;;11.00;9.90;;;;;;;;;;5083595;28;20204;-70
2023/05/22 01:25:37;;;;;;;12.43;11.27;;;;;;;;;;5083901;28;20391;-70
2023/05/22 01:28:18;;;;;;;12.02;10.88;;;;;;;;;;5083776;28;20216;-70
2023/05/22 01:30:47;;;;;;;12.63;11.52;;;;;;;;;;5083423;28;20196;-71
2023/05/22 01:33:14;;;;;;;12.40;11.05;;;;;;;;;;5083758;28;20204;-71
2023/05/22 01:35:41;;;;;;;11.65;10.57;;;;;;;;;;5083418;28;20204;-70
2023/05/22 01:38:08;;;;;;;13.50;11.07;;;;;;;;;;5083462;28;20224;-70
2023/05/22 01:40:35;;;;;;;12.93;11.20;;;;;;;;;;5083490;28;20197;-70
2023/05/22 01:43:01;;;;;;;13.20;11.40;;;;;;;;;;5083241;28;20203;-70
2023/05/22 01:45:30;;;;;;;15.27;11.63;;;;;;;;;;5083279;28;20604;-70
2023/05/22 01:47:57;;;;;;;12.43;11.13;;;;;;;;;;5083307;28;20199;-70
2023/05/22 01:50:25;;;;;;;12.05;11.00;;;;;;;;;;5083322;28;20202;-70
2023/05/22 01:52:54;;;;;;;12.43;11.23;;;;;;;;;;5083161;28;20541;-70
2023/05/22 01:55:26;;;;;;;11.73;10.63;;;;;;;;;;5083350;28;20196;-70
2023/05/22 01:57:56;;;;;;;13.90;11.50;;;;;;;;;;5082847;28;20266;-70
2023/05/22 02:00:24;;;;;;;13.68;11.52;;;;;;;;;;5082645;28;20242;-70
2023/05/22 02:02:53;;;;;;;12.88;11.68;;;;;;;;;;5083071;28;20475;-71
2023/05/22 02:05:22;;;;;;;12.18;10.63;;;;;;;;;;5083066;28;20436;-70
2023/05/22 02:07:48;;;;;;;12.02;10.85;;;;;;;;;;5083279;28;20204;-70
2023/05/22 02:10:15;;;;;;;13.50;11.98;;;;;;;;;;5083166;28;20233;-70
2023/05/22 02:12:41;;;;;;;14.05;11.40;;;;;;;;;;5082587;28;20196;-70
2023/05/22 02:15:08;;;;;;;12.00;10.90;;;;;;;;;;5082777;28;20204;-70
2023/05/22 02:17:39;;;;;;;12.15;10.85;;;;;;;;;;5082842;28;20212;-70
2023/05/22 02:20:06;;;;;;;11.65;10.43;;;;;;;;;;5082626;28;20267;-70
2023/05/22 02:22:33;;;;;;;13.85;10.80;;;;;;;;;;5082445;28;20230;-70
2023/05/22 02:25:00;;;;;;;11.80;10.70;;;;;;;;;;5082294;28;20203;-70
2023/05/22 02:27:26;;;;;;;11.88;10.77;;;;;;;;;;5082538;28;20262;-70
2023/05/22 02:29:52;;;;;;;12.32;11.13;;;;;;;;;;5082563;28;20196;-70
2023/05/22 02:32:18;;;;;;;11.48;10.48;;;;;;;;;;5082329;28;20230;-70
2023/05/22 02:34:45;;;;;;;12.27;11.05;;;;;;;;;;5082470;28;20547;-70
2023/05/22 02:37:12;;;;;;;12.23;10.90;;;;;;;;;;5082255;28;20342;-70
2023/05/22 02:39:39;;;;;;;12.50;11.13;;;;;;;;;;5082392;28;20275;-70
2023/05/22 02:42:06;;;;;;;12.63;11.32;;;;;;;;;;5082351;28;20200;-70
2023/05/22 02:44:32;;;;;;;12.02;10.90;;;;;;;;;;5082540;28;20365;-70
2023/05/22 02:46:58;;;;;;;13.45;10.35;;;;;;;;;;5082463;28;20527;-71
2023/05/22 02:49:24;;;;;;;15.70;11.35;;;;;;;;;;5082288;28;20192;-71
2023/05/22 02:51:51;;;;;;;12.85;11.40;;;;;;;;;;5082214;28;20196;-70
2023/05/22 02:54:17;;;;;;;12.57;10.55;;;;;;;;;;5081962;28;20238;-70
2023/05/22 02:56:44;;;;;;;13.55;12.13;;;;;;;;;;5082215;28;20208;-70
2023/05/22 02:59:11;;;;;;;15.38;12.10;;;;;;;;;;5082219;28;20216;-70
2023/05/22 03:01:38;;;;;;;13.13;11.82;;;;;;;;;;5082094;28;20204;-70
2023/05/22 03:04:05;;;;;;;35.03;22.23;;;;;;;;;;5081919;28;20196;-70
2023/05/22 03:06:33;;;;;;;17.83;14.57;;;;;;;;;;5082476;28;20197;-70
2023/05/22 03:09:02;;;;;;;20.88;16.48;;;;;;;;;;5081872;28;20208;-70
2023/05/22 03:11:28;;;;;;;15.23;12.25;;;;;;;;;;5081734;28;20267;-70
2023/05/22 03:13:56;;;;;;;12.77;11.57;;;;;;;;;;5081585;28;20204;-70
2023/05/22 03:16:23;;;;;;;12.93;11.55;;;;;;;;;;5082049;28;20554;-70
2023/05/22 03:18:50;;;;;;;13.77;12.40;;;;;;;;;;5081828;28;20555;-70
2023/05/22 03:21:16;;;;;;;13.00;11.63;;;;;;;;;;5081691;28;20188;-70
2023/05/22 03:23:44;;;;;;;14.43;12.52;;;;;;;;;;5081923;28;20196;-70
2023/05/22 03:26:10;;;;;;;18.00;12.82;;;;;;;;;;5081860;28;20400;-71
2023/05/22 03:28:37;;;;;;;13.15;11.80;;;;;;;;;;5081876;28;20219;-70
2023/05/22 03:31:08;;;;;;;14.73;12.40;;;;;;;;;;5081759;28;20250;-70
2023/05/22 03:33:34;;;;;;;16.80;13.43;;;;;;;;;;5081614;28;20196;-71
2023/05/22 03:36:00;;;;;;;18.85;13.35;;;;;;;;;;5081637;28;20196;-71
2023/05/22 03:38:26;;;;;;;17.85;13.23;;;;;;;;;;5081881;28;20389;-71
2023/05/22 03:40:53;;;;;;;15.77;12.90;;;;;;;;;;5081749;28;20549;-71
2023/05/22 03:43:19;;;;;;;14.63;12.50;;;;;;;;;;5081609;28;20369;-70
2023/05/22 03:45:45;;;;;;;17.45;12.77;;;;;;;;;;5081679;28;20196;-70
2023/05/22 03:48:13;;;;;;;14.82;12.48;;;;;;;;;;5081729;28;20200;-70
2023/05/22 03:50:39;;;;;;;16.30;12.38;;;;;;;;;;5081577;28;20197;-70
2023/05/22 03:53:05;;;;;;;13.00;11.60;;;;;;;;;;5081560;28;20196;-70
2023/05/22 03:55:32;;;;;;;18.27;12.90;;;;;;;;;;5081531;28;20242;-70
2023/05/22 03:57:58;;;;;;;18.13;12.68;;;;;;;;;;5081636;28;20360;-70
2023/05/22 04:00:24;;;;;;;16.48;12.90;;;;;;;;;;5081654;28;20559;-70
2023/05/22 04:02:51;;;;;;;15.93;12.05;;;;;;;;;;5081326;28;20204;-70
2023/05/22 04:05:18;;;;;;;14.07;12.65;;;;;;;;;;5081176;28;20192;-70
2023/05/22 04:07:44;;;;;;;17.17;12.85;;;;;;;;;;5081602;28;20382;-70
2023/05/22 04:10:11;;;;;;;14.48;12.82;;;;;;;;;;5081359;28;20428;-70
2023/05/22 04:12:37;;;;;;;16.45;13.13;;;;;;;;;;5081166;28;20196;-70
2023/05/22 04:15:04;;;;;;;15.25;13.60;;;;;;;;;;5081254;28;20204;-70
2023/05/22 04:17:31;;;;;;;15.82;13.13;;;;;;;;;;5082151;28;20263;-71
2023/05/22 04:19:58;;;;;;;19.30;14.57;;;;;;;;;;5081434;28;20221;-71
2023/05/22 04:22:26;;;;;;;19.80;15.13;;;;;;;;;;5082218;28;20228;-71
2023/05/22 04:24:52;;;;;;;20.35;14.18;;;;;;;;;;5084985;28;20204;-71
2023/05/22 04:27:20;;;;;;;17.35;13.68;;;;;;;;;;5084956;28;20216;-71
2023/05/22 04:29:47;;;;;;;15.60;14.00;;;;;;;;;;5084932;28;20475;-71
2023/05/22 04:32:16;;;;;;;16.42;13.00;;;;;;;;;;5084432;28;20372;-71
2023/05/22 04:34:43;;;;;;;14.75;12.88;;;;;;;;;;5084917;28;20263;-71
2023/05/22 04:37:10;;;;;;;14.75;12.77;;;;;;;;;;5084609;28;20212;-71
2023/05/22 04:39:39;;;;;;;16.00;12.98;;;;;;;;;;5084622;28;20262;-71
2023/05/22 04:42:05;;;;;;;16.75;12.80;;;;;;;;;;5084464;28;20197;-71
2023/05/22 04:44:33;;;;;;;15.48;13.35;;;;;;;;;;5084704;28;20197;-71
2023/05/22 04:46:59;;;;;;;14.32;12.88;;;;;;;;;;5084518;28;20200;-71
2023/05/22 04:49:27;;;;;;;16.83;13.60;;;;;;;;;;5084679;28;20486;-71
2023/05/22 04:51:54;;;;;;;16.70;15.00;;;;;;;;;;5084563;28;20196;-71
2023/05/22 04:54:20;;;;;;;15.70;13.07;;;;;;;;;;5083978;28;20193;-71
2023/05/22 04:56:47;;;;;;;18.92;14.45;;;;;;;;;;5084430;28;20216;-71
2023/05/22 04:59:15;;;;;;;15.75;13.85;;;;;;;;;;5084265;28;20216;-71
2023/05/22 05:01:44;;;;;;;15.73;12.77;;;;;;;;;;5084547;28;20196;-71
2023/05/22 05:04:10;;;;;;;20.83;14.32;;;;;;;;;;5084059;28;20556;-71
2023/05/22 05:06:36;;;;;;;16.65;14.85;;;;;;;;;;5084175;28;20200;-71
2023/05/22 05:09:02;;;;;;;22.83;14.50;;;;;;;;;;5084152;28;20547;-71
2023/05/22 05:11:29;;;;;;;18.33;14.43;;;;;;;;;;5083960;28;20508;-71
2023/05/22 05:13:56;;;;;;;19.85;14.48;;;;;;;;;;5083631;28;20512;-71
2023/05/22 05:16:23;;;;;;;19.95;14.32;;;;;;;;;;5084422;28;20197;-71
2023/05/22 05:18:50;;;;;;;22.27;15.02;;;;;;;;;;5083803;28;20226;-71
2023/05/22 05:21:16;;;;;;;15.90;13.98;;;;;;;;;;5083869;28;20211;-71
2023/05/22 05:23:42;;;;;;;16.35;14.57;;;;;;;;;;5083659;28;20203;-71
2023/05/22 05:26:09;;;;;;;15.32;13.20;;;;;;;;;;5083742;28;20323;-71
2023/05/22 05:28:35;;;;;;;16.67;13.82;;;;;;;;;;5083705;28;20265;-71
2023/05/22 05:31:03;;;;;;;15.45;13.85;;;;;;;;;;5083691;28;20241;-71
2023/05/22 05:33:29;;;;;;;14.98;13.32;;;;;;;;;;5082940;28;20225;-71
2023/05/22 05:35:55;;;;;;;15.15;13.68;;;;;;;;;;5083043;28;20362;-71
2023/05/22 05:38:22;;;;;;;14.43;13.02;;;;;;;;;;5083222;28;20539;-71
2023/05/22 05:40:48;;;;;;;14.75;13.32;;;;;;;;;;5083688;28;20268;-71
2023/05/22 05:43:15;;;;;;;15.30;13.73;;;;;;;;;;5083522;28;20230;-71
2023/05/22 05:45:41;;;;;;;15.65;13.38;;;;;;;;;;5083298;28;20388;-71
2023/05/22 05:48:09;;;;;;;15.52;13.60;;;;;;;;;;5083177;28;20271;-71
2023/05/22 05:50:35;;;;;;;15.25;13.30;;;;;;;;;;5082986;28;20238;-71
2023/05/22 05:53:01;;;;;;;15.90;14.00;;;;;;;;;;5082757;28;20235;-71
2023/05/22 05:55:28;;;;;;;18.33;15.07;;;;;;;;;;5082987;28;20476;-71
2023/05/22 05:57:54;;;;;;;24.52;17.63;;;;;;;;;;5082819;28;20200;-71
2023/05/22 06:00:21;;;;;;;18.08;15.88;;;;;;;;;;5082599;28;20225;-71
2023/05/22 06:02:47;;;;;;;16.30;14.35;;;;;;;;;;5082926;28;20268;-71
2023/05/22 06:05:16;;;;;;;19.45;14.55;;;;;;;;;;5075991;28;20205;-71
2023/05/22 06:07:42;;;;;;;19.73;14.55;;;;;;;;;;5059164;28;20209;-61
2023/05/22 06:10:10;;;;;;;18.10;14.93;;;;;;;;;;5067630;28;20205;-61
2023/05/22 06:12:36;;;;;;;19.70;13.93;;;;;;;;;;5064133;28;20208;-61
2023/05/22 06:15:03;;;;;;;15.18;13.65;;;;;;;;;;5066782;28;20256;-60
2023/05/22 06:17:30;;;;;;;16.40;14.68;;;;;;;;;;5068958;28;20223;-60
2023/05/22 06:19:56;;;;;;;17.45;14.38;;;;;;;;;;5067923;28;20266;-60
2023/05/22 06:22:24;;;;;;;17.65;14.48;;;;;;;;;;5066758;28;20217;-60
2023/05/22 06:24:50;;;;;;;15.90;13.93;;;;;;;;;;5068857;28;20430;-60
2023/05/22 06:27:17;;;;;;;16.70;14.05;;;;;;;;;;5066511;28;20225;-61
2023/05/22 06:29:43;;;;;;;18.40;13.85;;;;;;;;;;5070858;28;20511;-60
2023/05/22 06:32:09;;;;;;;14.70;13.20;;;;;;;;;;5066359;28;20211;-61
2023/05/22 06:34:35;;;;;;;15.07;13.52;;;;;;;;;;5077305;28;20200;-61
2023/05/22 06:37:02;;;;;;;15.35;13.80;;;;;;;;;;5077064;28;20290;-60
2023/05/22 06:39:30;;;;;;;16.15;12.93;;;;;;;;;;5076750;28;20224;-60
2023/05/22 06:41:56;;;;;;;15.63;12.90;;;;;;;;;;5076773;28;20215;-61
2023/05/22 06:44:24;;;;;;;16.90;13.48;;;;;;;;;;5076960;28;20205;-62
2023/05/22 06:46:51;;;;;;;16.40;13.35;;;;;;;;;;5076652;28;20540;-61
2023/05/22 06:49:17;;;;;;;15.02;13.55;;;;;;;;;;5074627;28;20208;-61
2023/05/22 06:51:43;;;;;;;14.95;13.35;;;;;;;;;;5072014;28;20227;-61
2023/05/22 06:54:11;;;;;;;15.93;14.32;;;;;;;;;;5067038;28;20426;-60
2023/05/22 06:56:38;;;;;;;14.25;12.77;;;;;;;;;;5075225;28;20254;-61
2023/05/22 06:59:05;;;;;;;16.67;14.23;;;;;;;;;;5073919;28;20240;-61
2023/05/22 07:01:31;;;;;;;15.57;13.98;;;;;;;;;;5075105;28;20217;-61
2023/05/22 07:03:59;;;;;;;17.63;13.80;;;;;;;;;;5075939;28;20212;-61
2023/05/22 07:06:25;;;;;;;16.98;15.13;;;;;;;;;;5075368;28;20222;-61
2023/05/22 07:08:51;;;;;;;16.02;13.77;;;;;;;;;;5074440;28;20216;-61
2023/05/22 07:11:17;;;;;;;19.23;14.98;;;;;;;;;;5075653;28;20212;-61
2023/05/22 07:13:45;;;;;;;16.08;13.05;;;;;;;;;;5074081;28;20224;-61
2023/05/22 07:16:11;;;;;;;14.35;12.68;;;;;;;;;;5075208;28;20200;-61
2023/05/22 07:18:39;;;;;;;18.60;15.35;;;;;;;;;;5075544;28;20413;-61
2023/05/22 07:21:05;;;;;;;17.85;15.95;;;;;;;;;;5075419;28;20290;-61
2023/05/22 07:23:31;;;;;;;16.17;13.68;;;;;;;;;;5075513;28;20434;-61
2023/05/22 07:25:57;;;;;;;16.42;13.90;;;;;;;;;;5074416;28;20212;-60
2023/05/22 07:28:24;;;;;;;14.80;13.25;;;;;;;;;;5075065;28;20617;-61
2023/05/22 07:30:51;;;;;;;19.48;14.65;;;;;;;;;;5075281;28;20212;-60
2023/05/22 07:33:18;;;;;;;18.05;14.63;;;;;;;;;;5075238;28;20311;-60
2023/05/22 07:35:44;;;;;;;16.23;13.95;;;;;;;;;;5065662;28;20212;-60
2023/05/22 07:38:10;;;;;;;16.65;14.90;;;;;;;;;;5074764;28;20220;-60
2023/05/22 07:40:37;;;;;;;18.98;14.48;;;;;;;;;;5075523;28;20240;-60
2023/05/22 07:43:03;;;;;;;18.02;14.18;;;;;;;;;;5075686;28;20220;-61
2023/05/22 07:45:29;;;;;;;17.77;15.07;;;;;;;;;;5076085;28;20516;-61
2023/05/22 07:47:57;;;;;;;16.50;14.30;;;;;;;;;;5075858;28;20212;-60
2023/05/22 07:50:25;;;;;;;17.08;14.48;;;;;;;;;;5075142;28;20584;-60
2023/05/22 07:52:51;;;;;;;18.60;14.48;;;;;;;;;;5075643;28;20218;-60
2023/05/22 07:55:17;;;;;;;16.95;14.45;;;;;;;;;;5076242;28;20699;-60
2023/05/22 07:57:44;;;;;;;14.43;13.10;;;;;;;;;;5076951;28;20273;-59
2023/05/22 08:00:13;;;;;;;16.83;13.55;;;;;;;;;;5078493;28;20239;-60
2023/05/22 08:02:40;;;;;;;14.65;13.25;;;;;;;;;;5078660;28;20574;-60
2023/05/22 08:05:08;;;;;;;15.80;14.10;;;;;;;;;;5070428;28;20235;-60
2023/05/22 08:07:35;;;;;;;17.90;14.27;;;;;;;;;;5076578;28;20200;-60
2023/05/22 08:10:02;;;;;;;14.55;12.93;;;;;;;;;;5078043;28;20456;-60
2023/05/22 08:12:28;;;;;;;18.58;13.40;;;;;;;;;;5078959;28;20218;-60
2023/05/22 08:14:55;;;;;;;15.15;12.85;;;;;;;;;;5078707;28;20219;-60
2023/05/22 08:17:21;;;;;;;15.32;13.85;;;;;;;;;;5077975;28;20208;-60
2023/05/22 08:19:47;;;;;;;16.83;13.45;;;;;;;;;;5078923;28;20595;-61
2023/05/22 08:22:15;;;;;;;14.35;12.85;;;;;;;;;;5073260;28;20209;-61
2023/05/22 08:24:41;;;;;;;18.92;13.50;;;;;;;;;;5067495;28;20212;-61
2023/05/22 08:27:07;;;;;;;15.38;12.75;;;;;;;;;;5067868;28;20448;-60
2023/05/22 08:29:35;;;;;;;17.77;13.27;;;;;;;;;;5065669;28;20540;-61
2023/05/22 08:32:01;;;;;;;14.20;12.48;;;;;;;;;;5068065;28;20456;-60
2023/05/22 08:34:27;;;;;;;17.90;12.90;;;;;;;;;;5070387;28;20412;-60
2023/05/22 08:36:54;;;;;;;15.52;12.10;;;;;;;;;;5063171;28;20255;-61
2023/05/22 08:39:21;;;;;;;18.65;13.60;;;;;;;;;;5075651;28;20204;-61
2023/05/22 08:41:48;;;;;;;15.63;13.05;;;;;;;;;;5077557;28;20215;-61
2023/05/22 08:44:15;;;;;;;16.70;13.57;;;;;;;;;;5078861;28;20216;-60
2023/05/22 08:46:42;;;;;;;15.88;12.82;;;;;;;;;;5077906;28;20572;-60
2023/05/22 08:49:09;;;;;;;15.50;13.30;;;;;;;;;;5061496;28;20243;-60
2023/05/22 08:51:38;;;;;;;18.20;13.48;;;;;;;;;;5077882;28;20218;-60
2023/05/22 08:54:05;;;;;;;14.70;13.18;;;;;;;;;;5078168;28;20216;-59
2023/05/22 08:56:34;;;;;;;13.93;12.55;;;;;;;;;;5077392;28;20257;-60
2023/05/22 08:59:00;;;;;;;16.83;13.95;;;;;;;;;;5077549;28;20215;-60
2023/05/22 09:01:27;;;;;;;16.33;12.63;;;;;;;;;;5078546;28;20285;-61
2023/05/22 09:03:54;;;;;;;15.52;13.43;;;;;;;;;;5078373;28;20269;-61
2023/05/22 09:06:20;;;;;;;14.40;12.90;;;;;;;;;;5078266;28;20274;-60
2023/05/22 09:08:46;;;;;;;17.00;13.13;;;;;;;;;;5078336;28;20283;-61
2023/05/22 09:11:13;;;;;;;21.20;14.23;;;;;;;;;;5078992;28;20209;-62
2023/05/22 09:13:40;;;;;;;18.88;13.90;;;;;;;;;;5078855;28;20326;-61
2023/05/22 09:16:11;;;;;;;18.65;13.57;;;;;;;;;;5078023;28;20208;-61
2023/05/22 09:18:37;;;;;;;15.85;12.88;;;;;;;;;;5067100;28;20223;-61
2023/05/22 09:21:04;;;;;;;15.40;13.75;;;;;;;;;;5067888;28;20224;-61
2023/05/22 09:23:30;;;;;;;15.20;13.23;;;;;;;;;;5078004;28;20515;-61
2023/05/22 09:25:57;;;;;;;16.10;13.50;;;;;;;;;;5078405;28;20204;-61
2023/05/22 09:28:23;;;;;;;16.42;14.73;;;;;;;;;;5078290;28;20447;-61
2023/05/22 09:30:52;;;;;;;14.35;12.95;;;;;;;;;;5078862;28;20208;-62
2023/05/22 09:33:18;;;;;;;15.23;13.65;;;;;;;;;;5078807;28;20212;-62
2023/05/22 09:35:46;;;;;;;14.65;13.20;;;;;;;;;;5078743;28;20438;-61
2023/05/22 09:38:12;;;;;;;15.68;13.65;;;;;;;;;;5076412;28;20279;-61
2023/05/22 09:40:39;;;;;;;19.50;13.13;;;;;;;;;;5077451;28;20239;-60
2023/05/22 09:43:06;;;;;;;15.38;12.80;;;;;;;;;;5077587;28;20396;-61
2023/05/22 09:45:34;;;;;;;18.23;14.27;;;;;;;;;;5076989;28;20610;-61
2023/05/22 09:48:02;;;;;;;15.00;13.07;;;;;;;;;;5077413;28;20243;-61
2023/05/22 09:50:28;;;;;;;18.67;13.73;;;;;;;;;;5076831;28;20508;-61
2023/05/22 09:52:54;;;;;;;17.50;13.90;;;;;;;;;;5076257;28;20434;-61
2023/05/22 09:55:22;;;;;;;17.60;13.38;;;;;;;;;;5077147;28;20535;-61
2023/05/22 09:57:51;;;;;;;16.17;13.60;;;;;;;;;;5077974;28;20212;-61
2023/05/22 10:00:18;;;;;;;20.42;13.93;;;;;;;;;;5077284;28;20409;-61
2023/05/22 10:02:45;;;;;;;19.25;14.95;;;;;;;;;;5077948;28;20208;-61
2023/05/22 10:05:19;;;;;;;16.85;13.60;;;;;;;;;;5076595;28;20218;-61
2023/05/22 10:07:47;;;;;;;16.35;13.13;;;;;;;;;;5077360;28;20207;-61
2023/05/22 10:10:15;;;;;;;17.27;12.80;;;;;;;;;;5076396;28;20208;-61
2023/05/22 10:12:43;;;;;;;17.42;13.57;;;;;;;;;;5076500;28;20215;-61
2023/05/22 10:15:10;;;;;;;16.13;13.35;;;;;;;;;;5077165;28;20220;-61
2023/05/22 10:17:37;;;;;;;17.77;13.10;;;;;;;;;;5075898;28;20211;-61
2023/05/22 10:20:06;;;;;;;15.80;13.85;;;;;;;;;;5075152;28;20243;-61
2023/05/22 10:22:35;;;;;;;13.85;12.50;;;;;;;;;;5076627;28;20218;-61
2023/05/22 10:25:02;;;;;;;17.10;12.32;;;;;;;;;;5076715;28;20466;-61
2023/05/22 10:27:28;;;;;;;18.13;13.18;;;;;;;;;;5076621;28;20224;-60
2023/05/22 10:29:58;;;;;;;15.10;12.88;;;;;;;;;;5076521;28;20445;-60
2023/05/22 10:32:27;;;;;;;19.25;12.98;;;;;;;;;;5076469;28;20215;-61
2023/05/22 10:34:59;;;;;;;14.50;13.00;;;;;;;;;;5075864;28;20204;-60
2023/05/22 10:37:34;;;;;;;12.93;11.70;;;;;;;;;;5075587;28;20683;-60
2023/05/22 10:40:03;;;;;;;20.08;11.98;;;;;;;;;;5076653;28;20268;-61
2023/05/22 10:42:30;;;;;;;16.40;11.23;;;;;;;;;;5076122;28;20281;-61
2023/05/22 10:44:57;;;;;;;17.95;13.23;;;;;;;;;;5076398;28;20211;-62
2023/05/22 10:47:23;;;;;;;14.57;11.75;;;;;;;;;;5076131;28;20211;-62
2023/05/22 10:50:02;;;;;;;13.57;10.90;;;;;;;;;;5074674;28;20301;-61
2023/05/22 10:52:28;;;;;;;15.77;12.50;;;;;;;;;;5075175;28;20340;-61
2023/05/22 10:54:54;;;;;;;16.00;13.05;;;;;;;;;;5075548;28;20254;-62
2023/05/22 10:57:23;;;;;;;13.52;11.38;;;;;;;;;;5076524;28;20212;-59
2023/05/22 10:59:50;;;;;;;17.23;11.57;;;;;;;;;;5075201;28;20211;-62
2023/05/22 11:02:28;;;;;;;11.57;10.57;;;;;;;;;;5074602;28;20239;-62
2023/05/22 11:04:54;;;;;;;13.73;10.85;;;;;;;;;;5062900;28;20211;-61
2023/05/22 11:07:20;;;;;;;17.40;10.82;;;;;;;;;;5075654;28;20306;-60
2023/05/22 11:09:47;;;;;;;12.93;10.57;;;;;;;;;;5076116;28;20520;-61
2023/05/22 11:12:15;;;;;;;11.63;10.43;;;;;;;;;;5066054;28;20267;-61
2023/05/22 11:14:43;;;;;;;12.15;10.32;;;;;;;;;;5075506;28;20223;-60
2023/05/22 11:17:11;;;;;;;12.82;11.20;;;;;;;;;;5075644;28;20211;-61
2023/05/22 11:19:39;;;;;;;16.20;11.23;;;;;;;;;;5075083;28;20519;-61
2023/05/22 11:22:05;;;;;;;11.13;10.05;;;;;;;;;;5075697;28;20224;-63
2023/05/22 11:24:32;;;;;;;17.48;11.40;;;;;;;;;;5076963;28;20524;-61
2023/05/22 11:27:02;;;;;;;11.45;10.45;;;;;;;;;;5075007;28;20219;-61
2023/05/22 11:29:29;;;;;;;14.23;9.82;;;;;;;;;;5075851;28;20336;-62
2023/05/22 11:31:56;;;;;;;13.52;9.90;;;;;;;;;;5078155;28;20313;-62
2023/05/22 11:34:23;;;;;;;13.13;9.65;;;;;;;;;;5079815;28;20257;-62
2023/05/22 11:36:50;;;;;;;9.88;9.00;;;;;;;;;;5079428;28;20265;-61
2023/05/22 11:39:16;;;;;;;11.73;9.95;;;;;;;;;;5070294;28;20231;-62
2023/05/22 11:41:42;;;;;;;10.15;8.60;;;;;;;;;;5079522;28;20588;-61
2023/05/22 11:44:09;;;;;;;10.93;8.93;;;;;;;;;;5079600;28;20559;-62
2023/05/22 11:46:35;;;;;;;9.93;8.93;;;;;;;;;;5080026;28;20457;-61
2023/05/22 11:49:02;;;;;;;9.27;8.30;;;;;;;;;;5079199;28;20579;-62
2023/05/22 11:51:29;;;;;;;9.48;8.13;;;;;;;;;;5080029;28;20219;-63
2023/05/22 11:53:56;;;;;;;10.18;9.13;;;;;;;;;;5079065;28;20212;-63
2023/05/22 11:56:22;;;;;;;10.07;8.90;;;;;;;;;;5079531;28;20219;-61
2023/05/22 11:58:49;;;;;;;13.95;9.30;;;;;;;;;;5080386;28;20216;-62
2023/05/22 12:01:15;;;;;;;9.60;8.32;;;;;;;;;;5078988;28;20238;-61
2023/05/22 12:03:41;;;;;;;9.50;8.60;;;;;;;;;;5079399;28;20211;-62
2023/05/22 12:06:09;;;;;;;10.25;9.40;;;;;;;;;;5080003;28;20200;-61
2023/05/22 12:08:36;;;;;;;14.07;9.70;;;;;;;;;;5077991;28;20208;-61
2023/05/22 12:11:04;;;;;;;9.75;8.55;;;;;;;;;;5079447;28;20435;-61
2023/05/22 12:13:30;;;;;;;10.35;9.25;;;;;;;;;;5073114;28;20544;-62
2023/05/22 12:15:58;;;;;;;11.10;9.00;;;;;;;;;;5079835;28;20211;-61
2023/05/22 12:18:25;;;;;;;10.32;9.20;;;;;;;;;;5078128;28;20477;-61
2023/05/22 12:20:53;;;;;;;9.07;8.07;;;;;;;;;;5078245;28;20234;-60
2023/05/22 12:23:24;;;;;;;12.07;8.10;;;;;;;;;;5079213;28;20212;-61
2023/05/22 12:25:57;;;;;;;8.80;7.93;;;;;;;;;;5078600;28;20212;-62
2023/05/22 12:28:23;;;;;;;9.55;8.07;;;;;;;;;;5080189;28;20389;-62
2023/05/22 12:30:52;;;;;;;8.35;7.68;;;;;;;;;;5080600;28;20200;-63
2023/05/22 12:33:19;;;;;;;10.43;8.20;;;;;;;;;;5079340;28;20210;-64
2023/05/22 12:35:45;;;;;;;8.95;8.07;;;;;;;;;;5079163;28;20214;-64
2023/05/22 12:38:12;;;;;;;8.52;7.72;;;;;;;;;;5078742;28;20215;-64
2023/05/22 12:40:39;;;;;;;8.73;7.93;;;;;;;;;;5078233;28;20512;-64
2023/05/22 12:43:06;;;;;;;10.55;7.43;;;;;;;;;;5077121;28;20215;-65
2023/05/22 12:45:32;;;;;;;14.80;7.88;;;;;;;;;;5078056;28;20219;-64
2023/05/22 12:47:58;;;;;;;9.70;8.07;;;;;;;;;;5078395;28;20212;-64
2023/05/22 12:50:24;;;;;;;9.40;7.60;;;;;;;;;;5078438;28;20289;-64
2023/05/22 12:52:51;;;;;;;9.80;8.68;;;;;;;;;;5077925;28;20351;-64
2023/05/22 12:55:17;;;;;;;8.93;8.02;;;;;;;;;;5078895;28;20211;-62
2023/05/22 12:57:45;;;;;;;9.52;8.75;;;;;;;;;;5079157;28;20565;-65
2023/05/22 13:00:12;;;;;;;9.20;8.40;;;;;;;;;;5078338;28;20235;-65
2023/05/22 13:02:38;;;;;;;10.10;7.95;;;;;;;;;;5078839;28;20399;-65
2023/05/22 13:05:05;;;;;;;8.85;8.15;;;;;;;;;;5078835;28;20494;-65
2023/05/22 13:07:31;;;;;;;9.07;8.30;;;;;;;;;;5078656;28;20208;-65
2023/05/22 13:09:57;;;;;;;10.95;9.23;;;;;;;;;;5078965;28;20224;-65
2023/05/22 13:12:25;;;;;;;9.90;8.70;;;;;;;;;;5078324;28;20214;-63
2023/05/22 13:14:53;;;;;;;9.45;8.50;;;;;;;;;;5078419;28;20291;-62
2023/05/22 13:17:19;;;;;;;9.07;8.35;;;;;;;;;;5078130;28;20216;-62
2023/05/22 13:19:46;;;;;;;9.15;8.40;;;;;;;;;;5078309;28;20418;-63
2023/05/22 13:22:12;;;;;;;10.10;7.90;;;;;;;;;;5077641;28;20269;-63
2023/05/22 13:24:38;;;;;;;9.68;8.88;;;;;;;;;;5078639;28;20609;-63
2023/05/22 13:27:04;;;;;;;10.52;8.05;;;;;;;;;;5077681;28;20870;-63
2023/05/22 13:29:31;;;;;;;7.32;6.70;;;;;;;;;;5077956;28;20253;-65
2023/05/22 13:31:58;;;;;;;8.10;7.40;;;;;;;;;;5078454;28;20215;-63
2023/05/22 13:34:24;;;;;;;8.55;7.80;;;;;;;;;;5077812;28;20216;-62
2023/05/22 13:36:51;;;;;;;10.40;7.85;;;;;;;;;;5078860;28;20253;-62
2023/05/22 13:39:17;;;;;;;10.77;7.55;;;;;;;;;;5078198;28;20218;-63
2023/05/22 13:41:44;;;;;;;8.50;7.68;;;;;;;;;;5077704;28;20600;-62
2023/05/22 13:44:10;;;;;;;13.05;8.10;;;;;;;;;;5077884;28;20287;-65
2023/05/22 13:46:36;;;;;;;8.45;7.65;;;;;;;;;;5077710;28;20454;-65
2023/05/22 13:49:04;;;;;;;8.65;7.75;;;;;;;;;;5077788;28;20436;-65
2023/05/22 13:51:30;;;;;;;8.95;7.97;;;;;;;;;;5077867;28;20212;-65
2023/05/22 13:53:56;;;;;;;8.43;7.63;;;;;;;;;;5077717;28;20211;-65
2023/05/22 13:56:23;;;;;;;9.95;8.00;;;;;;;;;;5076508;28;20216;-65
2023/05/22 13:58:49;;;;;;;12.02;9.63;;;;;;;;;;5077844;28;20216;-65
2023/05/22 14:01:15;;;;;;;10.70;9.68;;;;;;;;;;5078814;28;20472;-65
2023/05/22 14:03:41;;;;;;;10.45;9.27;;;;;;;;;;5077972;28;20235;-65
2023/05/22 14:06:09;;;;;;;10.07;9.13;;;;;;;;;;5077169;28;20404;-65
2023/05/22 14:08:35;;;;;;;13.32;9.57;;;;;;;;;;5077374;28;20219;-65
2023/05/22 14:11:02;;;;;;;13.52;9.57;;;;;;;;;;5077155;28;20212;-65
2023/05/22 14:13:28;;;;;;;11.02;9.88;;;;;;;;;;5076560;28;20211;-65
2023/05/22 14:16:02;;;;;;;13.63;10.38;;;;;;;;;;5094709;28;20598;-65
2023/05/22 14:18:28;;;;;;;10.52;9.52;;;;;;;;;;5094376;28;20511;-65
2023/05/22 14:20:55;;;;;;;12.43;10.27;;;;;;;;;;5093622;28;20388;-65